Terminal Aerodrome Forecast
Issued by NWS

Home | Current Version | Previous Version | Text Only | Print | Product List | Glossary On
Versions: 1 2 3 4 5 6 7 8 9 10 11 12 13 14 15 16 17 18
000
FTUS42 KTBW 290536
TAFLAL
TAF
KLAL 290536Z 2906/3006 06004KT P6SM FEW250
     FM291400 08009KT P6SM SCT030 SCT250
     FM291700 08010KT P6SM SCT050 SCT250
     FM300100 08007KT P6SM SCT250
      AMD NOT SKED TIL 291200=

USA.gov is the U.S. government's official web portal to all federal, state and local government web resources and services.